createdAt,value
2022-12-08T00:01:28.785Z,100822.00
2022-12-08T00:03:58.042Z,100822.00
2022-12-08T00:06:50.956Z,100819.41
2022-12-08T00:09:38.686Z,100815.03
2022-12-08T00:12:08.821Z,100815.03
2022-12-08T00:14:38.795Z,100808.09
2022-12-08T00:17:08.249Z,100794.09
2022-12-08T00:19:36.469Z,100802.75
2022-12-08T00:22:03.777Z,100803.59
2022-12-08T00:24:33.491Z,100794.91
2022-12-08T00:27:01.649Z,100789.59
2022-12-08T00:29:29.751Z,100792.13
2022-12-08T00:31:57.071Z,100792.94
2022-12-08T00:34:24.388Z,100777.28
2022-12-08T00:36:51.718Z,100775.47
2022-12-08T00:39:19.432Z,100770.16
2022-12-08T00:42:06.095Z,100764.88
2022-12-08T00:44:33.392Z,100755.22
2022-12-08T00:47:00.573Z,100754.28
2022-12-08T00:49:27.878Z,100755.00
2022-12-08T00:51:55.727Z,100752.41
2022-12-08T00:54:24.104Z,100752.34
2022-12-08T00:56:52.023Z,100752.31
2022-12-08T00:59:19.353Z,100740.97
2022-12-08T01:01:48.133Z,100733.22
2022-12-08T01:04:18.308Z,100728.94
2022-12-08T01:06:46.022Z,100741.78
2022-12-08T01:09:15.726Z,100741.63
2022-12-08T01:11:44.512Z,100749.28
2022-12-08T01:14:12.755Z,100751.03
2022-12-08T01:16:41.604Z,100761.56
2022-12-08T01:19:13.780Z,100766.88
2022-12-08T01:21:41.764Z,100787.88
2022-12-08T01:24:18.078Z,100782.84
2022-12-08T01:26:45.922Z,100786.53
2022-12-08T01:29:13.601Z,100783.22
2022-12-08T01:31:40.958Z,100782.47
2022-12-08T01:34:10.250Z,100775.53
2022-12-08T01:36:38.531Z,100780.75
2022-12-08T01:39:08.931Z,100773.72
2022-12-08T01:41:38.171Z,100779.75
2022-12-08T01:44:08.744Z,100773.59
2022-12-08T01:46:38.315Z,100783.13
2022-12-08T01:49:22.742Z,100776.97
2022-12-08T01:52:11.840Z,100768.84
2022-12-08T01:54:45.600Z,100778.91
2022-12-08T01:57:18.681Z,100770.00
2022-12-08T01:59:51.599Z,100766.31
2022-12-08T02:02:19.289Z,100766.97
2022-12-08T02:04:46.833Z,100750.13
2022-12-08T02:07:16.339Z,100746.44
2022-12-08T02:09:44.923Z,100751.34
2022-12-08T02:12:12.478Z,100746.88
2022-12-08T02:14:40.033Z,100737.25
2022-12-08T02:17:19.355Z,100734.59
2022-12-08T02:20:32.439Z,100732.06
2022-12-08T02:23:40.890Z,100717.38
2022-12-08T02:26:29.611Z,100715.72
2022-12-08T02:29:12.000Z,100718.41
2022-12-08T02:32:26.692Z,100713.22
2022-12-08T02:35:10.077Z,100716.75
2022-12-08T02:38:05.404Z,100704.63
2022-12-08T02:40:35.399Z,100696.84
2022-12-08T02:43:26.302Z,100678.75
2022-12-08T02:46:02.832Z,100681.56
2022-12-08T02:48:30.535Z,100684.22
2022-12-08T02:50:57.784Z,100686.84
2022-12-08T02:53:28.021Z,100682.50
2022-12-08T02:56:22.289Z,100681.66
2022-12-08T02:59:07.887Z,100692.03
2022-12-08T03:02:22.923Z,100692.03
2022-12-08T03:05:02.422Z,100705.91
2022-12-08T03:07:39.733Z,100711.16
2022-12-08T03:10:16.554Z,100725.06
2022-12-08T03:12:52.967Z,100725.19
2022-12-08T03:15:22.230Z,100723.53
2022-12-08T03:17:57.640Z,100716.75
2022-12-08T03:20:27.424Z,100716.06
2022-12-08T03:23:00.158Z,100716.13
2022-12-08T03:25:30.980Z,100704.06
2022-12-08T03:27:59.899Z,100701.47
2022-12-08T03:30:30.702Z,100684.16
2022-12-08T03:33:07.862Z,100678.97
2022-12-08T03:35:39.369Z,100673.75
2022-12-08T03:38:13.156Z,100674.56
2022-12-08T03:40:43.620Z,100668.44
2022-12-08T03:43:10.917Z,100675.34
2022-12-08T03:45:38.109Z,100659.66
2022-12-08T03:48:05.440Z,100663.97
2022-12-08T03:50:32.669Z,100663.09
2022-12-08T03:52:59.828Z,100668.97
2022-12-08T03:55:27.096Z,100678.41
2022-12-08T03:57:54.270Z,100670.53
2022-12-08T04:00:21.746Z,100670.41
2022-12-08T04:02:48.932Z,100659.94
2022-12-08T04:05:16.282Z,100652.06
2022-12-08T04:07:43.636Z,100649.41
2022-12-08T04:10:11.192Z,100667.50
2022-12-08T04:12:38.568Z,100656.19
2022-12-08T04:15:06.255Z,100655.25
2022-12-08T04:17:33.501Z,100643.09
2022-12-08T04:20:00.803Z,100638.81
2022-12-08T04:22:28.110Z,100632.75
2022-12-08T04:24:55.488Z,100639.69
2022-12-08T04:27:22.726Z,100645.75
2022-12-08T04:29:50.072Z,100650.94
2022-12-08T04:32:17.494Z,100641.41
2022-12-08T04:34:44.794Z,100643.22
2022-12-08T04:37:11.993Z,100649.34
2022-12-08T04:39:39.191Z,100653.72
2022-12-08T04:42:06.413Z,100660.72
2022-12-08T04:44:33.668Z,100667.72
2022-12-08T04:47:00.976Z,100669.53
2022-12-08T04:49:28.238Z,100666.09
2022-12-08T04:51:55.598Z,100668.69
2022-12-08T04:54:22.982Z,100667.88
2022-12-08T04:56:50.225Z,100674.78
2022-12-08T04:59:17.538Z,100670.41
2022-12-08T05:01:44.987Z,100678.13
2022-12-08T05:04:12.375Z,100655.59
2022-12-08T05:06:39.632Z,100659.94
2022-12-08T05:09:06.986Z,100650.50
2022-12-08T05:11:34.248Z,100647.09
2022-12-08T05:14:01.477Z,100646.31
2022-12-08T05:16:28.746Z,100648.19
2022-12-08T05:18:55.952Z,100643.91
2022-12-08T05:21:23.177Z,100637.06
2022-12-08T05:23:50.442Z,100631.97
2022-12-08T05:26:17.639Z,100624.19
2022-12-08T05:28:45.003Z,100634.63
2022-12-08T05:31:13.765Z,100629.44
2022-12-08T05:33:41.440Z,100623.38
2022-12-08T05:36:10.287Z,100621.59
2022-12-08T05:38:37.696Z,100618.91
2022-12-08T05:41:06.983Z,100624.81
2022-12-08T05:43:34.330Z,100623.75
2022-12-08T05:46:01.863Z,100620.22
2022-12-08T05:48:29.373Z,100621.03
2022-12-08T05:50:56.719Z,100627.78
2022-12-08T05:53:24.052Z,100632.69
2022-12-08T05:55:51.258Z,100628.94
2022-12-08T05:58:20.500Z,100627.81
2022-12-08T06:00:48.941Z,100624.97
2022-12-08T06:03:18.257Z,100626.47
2022-12-08T06:05:47.361Z,100628.78
2022-12-08T06:08:14.848Z,100615.66
2022-12-08T06:10:43.897Z,100614.63
2022-12-08T06:13:11.178Z,100615.41
2022-12-08T06:15:39.188Z,100611.03
2022-12-08T06:18:07.760Z,100616.16
2022-12-08T06:20:35.321Z,100614.41
2022-12-08T06:23:03.505Z,100616.09
2022-12-08T06:25:30.990Z,100623.88
2022-12-08T06:27:58.285Z,100622.19
2022-12-08T06:30:26.094Z,100623.94
2022-12-08T06:32:53.316Z,100614.47
2022-12-08T06:35:22.281Z,100620.41
2022-12-08T06:37:51.541Z,100619.53
2022-12-08T06:40:18.851Z,100634.94
2022-12-08T06:42:46.865Z,100623.63
2022-12-08T06:45:17.094Z,100624.47
2022-12-08T06:47:44.658Z,100632.25
2022-12-08T06:50:13.821Z,100628.75
2022-12-08T06:52:51.563Z,100631.31
2022-12-08T06:55:57.456Z,100631.31
2022-12-08T06:58:13.824Z,100639.81
2022-12-08T07:00:41.951Z,100641.53
2022-12-08T07:03:10.937Z,100644.94
2022-12-08T07:05:39.154Z,100647.59
2022-12-08T07:08:08.612Z,100665.03
2022-12-08T07:10:36.745Z,100663.38
2022-12-08T07:13:04.461Z,100660.78
2022-12-08T07:15:31.957Z,100664.16
2022-12-08T07:18:00.243Z,100672.00
2022-12-08T07:20:28.433Z,100673.75
2022-12-08T07:22:56.020Z,100662.59
2022-12-08T07:25:23.975Z,100666.91
2022-12-08T07:27:52.673Z,100659.03
2022-12-08T07:30:20.680Z,100658.09
2022-12-08T07:32:47.890Z,100658.88
2022-12-08T07:35:15.223Z,100657.97
2022-12-08T07:37:43.098Z,100654.34
2022-12-08T07:40:11.302Z,100653.47
2022-12-08T07:42:38.521Z,100645.63
2022-12-08T07:45:06.256Z,100651.59
2022-12-08T07:47:33.490Z,100654.97
2022-12-08T07:50:00.784Z,100650.63
2022-12-08T07:52:28.024Z,100664.41
2022-12-08T07:54:55.904Z,100659.22
2022-12-08T07:57:23.281Z,100660.06
2022-12-08T07:59:50.493Z,100666.88
2022-12-08T08:02:25.352Z,100666.75
2022-12-08T08:04:54.467Z,100663.22
2022-12-08T08:07:21.825Z,100651.91
2022-12-08T08:09:49.028Z,100656.19
2022-12-08T08:12:31.472Z,100666.44
2022-12-08T08:15:00.670Z,100667.19
2022-12-08T08:17:28.716Z,100673.94
2022-12-08T08:19:59.237Z,100666.97
2022-12-08T08:22:28.470Z,100673.00
2022-12-08T08:24:55.963Z,100671.22
2022-12-08T08:27:23.144Z,100677.22
2022-12-08T08:29:50.499Z,100677.28
2022-12-08T08:32:17.957Z,100675.59
2022-12-08T08:34:47.277Z,100666.22
2022-12-08T08:37:14.596Z,100676.72
2022-12-08T08:39:43.146Z,100676.88
2022-12-08T08:42:10.374Z,100677.03
2022-12-08T08:44:39.092Z,100678.06
2022-12-08T08:47:06.468Z,100674.78
2022-12-08T08:49:33.589Z,100675.78
2022-12-08T08:52:00.868Z,100668.97
2022-12-08T08:54:31.699Z,100663.03
2022-12-08T08:57:00.130Z,100672.63
2022-12-08T08:59:30.504Z,100668.41
2022-12-08T09:01:57.883Z,100669.41
2022-12-08T09:04:25.762Z,100666.06
2022-12-08T09:06:53.050Z,100659.28
2022-12-08T09:09:20.518Z,100664.69
2022-12-08T09:11:47.817Z,100668.31
2022-12-08T09:14:15.524Z,100661.63
2022-12-08T09:16:44.353Z,100668.75
2022-12-08T09:19:11.733Z,100668.13
2022-12-08T09:21:40.163Z,100655.31
2022-12-08T09:24:08.506Z,100660.66
2022-12-08T09:26:35.904Z,100662.53
2022-12-08T09:29:03.213Z,100667.00
2022-12-08T09:31:30.607Z,100676.75
2022-12-08T09:33:58.458Z,100673.50
2022-12-08T09:36:27.067Z,100671.19
2022-12-08T09:38:54.944Z,100674.81
2022-12-08T09:41:50.122Z,100673.28
2022-12-08T09:44:49.111Z,100680.50
2022-12-08T09:47:41.340Z,100688.44
2022-12-08T09:50:29.902Z,100688.50
2022-12-08T09:52:59.238Z,100680.84
2022-12-08T09:55:51.662Z,100681.78
2022-12-08T09:58:30.057Z,100677.75
2022-12-08T10:00:59.380Z,100673.63
2022-12-08T10:03:30.293Z,100679.22
2022-12-08T10:06:03.411Z,100672.50
2022-12-08T10:08:46.801Z,100670.13
2022-12-08T10:11:22.202Z,100658.19
2022-12-08T10:14:13.170Z,100658.19
2022-12-08T10:16:46.309Z,100655.53
2022-12-08T10:19:23.770Z,100661.59
2022-12-08T10:21:53.173Z,100665.78
2022-12-08T10:24:32.524Z,100665.66
2022-12-08T10:27:01.783Z,100663.06
2022-12-08T10:29:30.344Z,100664.94
2022-12-08T10:31:59.591Z,100671.25
2022-12-08T10:34:27.253Z,100670.59
2022-12-08T10:37:00.609Z,100673.50
2022-12-08T10:39:39.920Z,100672.13
2022-12-08T10:42:07.611Z,100675.84
2022-12-08T10:44:49.859Z,100682.16
2022-12-08T10:47:21.855Z,100681.50
2022-12-08T10:50:07.297Z,100679.09
2022-12-08T10:52:39.927Z,100673.09
2022-12-08T10:55:21.475Z,100672.47
2022-12-08T10:57:49.265Z,100666.53
2022-12-08T11:00:20.427Z,100670.25
2022-12-08T11:02:58.904Z,100662.69
2022-12-08T11:05:33.567Z,100667.28
2022-12-08T11:08:01.872Z,100658.78
2022-12-08T11:10:35.028Z,100658.97
2022-12-08T11:13:05.286Z,100655.72
2022-12-08T11:15:37.842Z,100653.34
2022-12-08T11:18:29.842Z,100648.28
2022-12-08T11:21:12.944Z,100653.72
2022-12-08T11:23:42.830Z,100654.81
2022-12-08T11:26:25.578Z,100660.25
2022-12-08T11:28:54.323Z,100656.94
2022-12-08T11:31:29.048Z,100655.38
2022-12-08T11:33:56.592Z,100656.25
2022-12-08T11:36:27.287Z,100657.13
2022-12-08T11:38:59.884Z,100658.78
2022-12-08T11:41:36.076Z,100659.78
2022-12-08T11:44:47.818Z,100655.63
2022-12-08T11:47:26.486Z,100648.81
2022-12-08T11:50:03.650Z,100660.03
2022-12-08T11:52:42.265Z,100647.13
2022-12-08T11:55:15.648Z,100645.50
2022-12-08T11:57:46.669Z,100652.41
2022-12-08T12:00:17.241Z,100649.78
2022-12-08T12:02:51.354Z,100648.03
2022-12-08T12:06:13.142Z,100644.63
2022-12-08T12:08:52.678Z,100649.78
2022-12-08T12:12:14.087Z,100654.06
2022-12-08T12:14:59.819Z,100649.53
2022-12-08T12:17:51.165Z,100649.31
2022-12-08T12:20:30.770Z,100655.19
2022-12-08T12:23:13.544Z,100645.47
2022-12-08T12:26:09.812Z,100643.59
2022-12-08T12:28:57.100Z,100644.34
2022-12-08T12:31:29.829Z,100649.50
2022-12-08T12:34:35.901Z,100663.19
2022-12-08T12:37:13.134Z,100660.53
2022-12-08T12:39:52.773Z,100658.75
2022-12-08T12:42:40.019Z,100655.31
2022-12-08T12:45:35.532Z,100657.19
2022-12-08T12:48:02.735Z,100655.56
2022-12-08T12:50:41.849Z,100653.94
2022-12-08T12:53:19.170Z,100658.38
2022-12-08T12:55:47.684Z,100651.50
2022-12-08T12:58:30.271Z,100638.47
2022-12-08T13:01:13.023Z,100641.13
2022-12-08T13:03:45.919Z,100642.00
2022-12-08T13:06:15.392Z,100636.69
2022-12-08T13:08:55.162Z,100636.63
2022-12-08T13:11:24.343Z,100640.13
2022-12-08T13:14:01.211Z,100632.19
2022-12-08T13:16:37.024Z,100634.66
2022-12-08T13:19:05.984Z,100631.94
2022-12-08T13:21:36.959Z,100627.44
2022-12-08T13:24:10.569Z,100636.75
2022-12-08T13:26:46.778Z,100641.84
2022-12-08T13:29:25.047Z,100639.94
2022-12-08T13:32:02.029Z,100629.50
2022-12-08T13:34:48.067Z,100631.22
2022-12-08T13:37:21.556Z,100627.69
2022-12-08T13:39:58.011Z,100639.81
2022-12-08T13:42:36.149Z,100638.94
2022-12-08T13:45:48.756Z,100636.28
2022-12-08T13:50:09.880Z,100638.84
2022-12-08T13:53:34.957Z,100640.50
2022-12-08T13:57:29.674Z,100641.19
2022-12-08T14:00:08.399Z,100645.41
2022-12-08T14:02:47.684Z,100643.59
2022-12-08T14:05:35.167Z,100643.56
2022-12-08T14:08:51.013Z,100648.75
2022-12-08T14:11:33.584Z,100647.09
2022-12-08T14:14:04.491Z,100654.88
2022-12-08T14:16:42.167Z,100659.28
2022-12-08T14:19:26.040Z,100659.28
2022-12-08T14:22:16.671Z,100667.06
2022-12-08T14:24:49.642Z,100660.09
2022-12-08T14:27:21.014Z,100663.53
2022-12-08T14:29:56.612Z,100661.75
2022-12-08T14:32:37.803Z,100660.03
2022-12-08T14:35:08.399Z,100660.84
2022-12-08T14:37:43.861Z,100659.97
2022-12-08T14:40:24.402Z,100658.06
2022-12-08T14:43:14.758Z,100653.66
2022-12-08T14:46:02.731Z,100658.72
2022-12-08T14:48:36.492Z,100652.53
2022-12-08T14:51:03.730Z,100651.47
2022-12-08T14:53:59.246Z,100657.38
2022-12-08T14:56:52.989Z,100660.69
2022-12-08T14:59:26.017Z,100658.78
2022-12-08T15:02:09.279Z,100670.72
2022-12-08T15:04:42.862Z,100660.06
2022-12-08T15:07:17.403Z,100666.81
2022-12-08T15:09:49.098Z,100666.53
2022-12-08T15:12:27.181Z,100677.56
2022-12-08T15:15:10.171Z,100677.31
2022-12-08T15:17:40.120Z,100681.44
2022-12-08T15:20:31.662Z,100683.75
2022-12-08T15:23:02.606Z,100681.75
2022-12-08T15:25:30.156Z,100684.06
2022-12-08T15:27:58.458Z,100673.41
2022-12-08T15:30:30.030Z,100676.59
2022-12-08T15:32:57.420Z,100685.03
2022-12-08T15:35:25.068Z,100677.81
2022-12-08T15:37:52.401Z,100681.91
2022-12-08T15:40:26.132Z,100683.44
2022-12-08T15:42:53.902Z,100685.84
2022-12-08T15:45:28.826Z,100691.66
2022-12-08T15:47:56.622Z,100692.31
2022-12-08T15:50:24.385Z,100690.44
2022-12-08T15:52:51.712Z,100700.63
2022-12-08T15:55:21.032Z,100696.16
2022-12-08T16:00:57.372Z,100688.81
2022-12-08T16:09:19.415Z,100701.94
2022-12-08T16:12:08.465Z,100696.53
2022-12-08T16:17:27.181Z,100706.50
2022-12-08T16:19:55.387Z,100696.03
2022-12-08T16:25:20.782Z,100707.78
2022-12-08T16:28:01.244Z,100707.66
2022-12-08T16:30:30.870Z,100705.75
2022-12-08T16:32:59.070Z,100715.03
2022-12-08T16:35:27.119Z,100718.38
2022-12-08T16:37:54.599Z,100726.03
2022-12-08T16:40:23.076Z,100721.53
2022-12-08T16:42:50.594Z,100720.50
2022-12-08T16:45:23.791Z,100722.94
2022-12-08T16:47:54.607Z,100732.38
2022-12-08T16:50:23.455Z,100728.75
2022-12-08T16:53:03.415Z,100729.44
2022-12-08T16:55:31.559Z,100727.69
2022-12-08T16:58:00.598Z,100724.09
2022-12-08T17:00:29.642Z,100734.44
2022-12-08T17:02:58.582Z,100733.41
2022-12-08T17:05:26.406Z,100736.00
2022-12-08T17:07:54.874Z,100731.63
2022-12-08T17:10:26.153Z,100732.44
2022-12-08T17:12:54.803Z,100733.19
2022-12-08T17:15:24.841Z,100732.31
2022-12-08T17:17:53.114Z,100733.06
2022-12-08T17:20:23.552Z,100738.97
2022-12-08T17:22:53.292Z,100740.59
2022-12-08T17:25:20.712Z,100743.13
2022-12-08T17:27:47.985Z,100739.56
2022-12-08T17:30:19.239Z,100743.88
2022-12-08T17:32:46.958Z,100739.47
2022-12-08T17:35:15.166Z,100733.25
2022-12-08T17:37:43.403Z,100738.34
2022-12-08T17:40:11.895Z,100726.16
2022-12-08T17:42:39.441Z,100724.38
2022-12-08T17:45:08.400Z,100724.22
2022-12-08T17:47:36.755Z,100720.75
2022-12-08T17:50:05.209Z,100729.28
2022-12-08T17:52:33.101Z,100720.56
2022-12-08T17:55:00.373Z,100717.03
2022-12-08T17:57:27.670Z,100722.13
2022-12-08T17:59:55.005Z,100716.00
2022-12-08T18:02:22.431Z,100715.91
2022-12-08T18:04:49.979Z,100713.25
2022-12-08T18:07:17.540Z,100724.44
2022-12-08T18:09:44.918Z,100726.03
2022-12-08T18:12:12.204Z,100728.50
2022-12-08T18:14:39.804Z,100722.44
2022-12-08T18:17:07.131Z,100720.66
2022-12-08T18:19:34.450Z,100719.72
2022-12-08T18:22:01.750Z,100716.97
2022-12-08T18:24:29.109Z,100724.72
2022-12-08T18:26:57.873Z,100719.44
2022-12-08T18:29:28.063Z,100721.94
2022-12-08T18:31:55.566Z,100717.56
2022-12-08T18:34:22.807Z,100725.19
2022-12-08T18:36:50.265Z,100736.34
2022-12-08T18:39:22.488Z,100727.63
2022-12-08T18:41:50.357Z,100723.28
2022-12-08T18:44:18.339Z,100735.22
2022-12-08T18:46:46.257Z,100739.41
2022-12-08T18:49:16.086Z,100735.09
2022-12-08T18:51:43.869Z,100725.56
2022-12-08T18:54:12.427Z,100725.47
2022-12-08T18:56:39.763Z,100728.03
2022-12-08T18:59:11.030Z,100723.66
2022-12-08T19:01:39.763Z,100725.44
2022-12-08T19:04:27.836Z,100724.47
2022-12-08T19:06:57.104Z,100726.06
2022-12-08T19:09:26.852Z,100722.63
2022-12-08T19:11:55.171Z,100721.72
2022-12-08T19:14:28.190Z,100738.22
2022-12-08T19:16:59.108Z,100734.75
2022-12-08T19:19:28.067Z,100732.97
2022-12-08T19:21:56.163Z,100727.69
2022-12-08T19:24:24.010Z,100728.53
2022-12-08T19:26:51.288Z,100740.50
2022-12-08T19:29:18.705Z,100740.44
2022-12-08T19:31:46.076Z,100733.41
2022-12-08T19:34:14.071Z,100740.34
2022-12-08T19:36:44.526Z,100745.44
2022-12-08T19:39:34.513Z,100753.16
2022-12-08T19:42:20.724Z,100746.19
2022-12-08T19:44:53.877Z,100742.47
2022-12-08T19:47:27.156Z,100747.66
2022-12-08T19:50:15.453Z,100748.50
2022-12-08T19:52:43.672Z,100743.22
2022-12-08T19:55:11.135Z,100750.91
2022-12-08T19:57:38.558Z,100745.66
2022-12-08T20:00:07.270Z,100754.31
2022-12-08T20:02:37.395Z,100750.75
2022-12-08T20:05:06.559Z,100750.75
2022-12-08T20:07:34.665Z,100747.28
2022-12-08T20:10:08.334Z,100742.94
2022-12-08T20:12:35.872Z,100749.75
2022-12-08T20:15:03.308Z,100754.91
2022-12-08T20:17:31.268Z,100743.66
2022-12-08T20:20:03.869Z,100751.41
2022-12-08T20:22:34.464Z,100745.28
2022-12-08T20:25:02.289Z,100750.38
2022-12-08T20:27:29.698Z,100749.50
2022-12-08T20:29:56.952Z,100751.13
2022-12-08T20:32:24.258Z,100751.91
2022-12-08T20:34:51.580Z,100748.38
2022-12-08T20:37:19.814Z,100748.25
2022-12-08T20:39:47.215Z,100748.16
2022-12-08T20:42:14.487Z,100748.06
2022-12-08T20:44:44.744Z,100754.06
2022-12-08T20:47:13.334Z,100758.25
2022-12-08T20:49:41.200Z,100752.06
2022-12-08T20:52:09.174Z,100756.31
2022-12-08T20:54:37.888Z,100755.44
2022-12-08T20:57:05.792Z,100753.81
2022-12-08T20:59:33.412Z,100758.19
2022-12-08T21:02:00.880Z,100758.25
2022-12-08T21:04:28.552Z,100763.38
2022-12-08T21:06:56.123Z,100770.22
2022-12-08T21:09:23.766Z,100776.19
2022-12-08T21:11:51.298Z,100767.56
2022-12-08T21:14:18.890Z,100765.78
2022-12-08T21:16:46.747Z,100770.00
2022-12-08T21:19:14.307Z,100768.94
2022-12-08T21:21:41.688Z,100770.72
2022-12-08T21:24:10.996Z,100769.81
2022-12-08T21:26:38.578Z,100767.22
2022-12-08T21:29:06.071Z,100773.38
2022-12-08T21:31:33.781Z,100769.91
2022-12-08T21:34:02.162Z,100775.94
2022-12-08T21:36:31.076Z,100774.09
2022-12-08T21:39:01.201Z,100769.78
2022-12-08T21:41:48.331Z,100777.53
2022-12-08T21:44:20.279Z,100770.66
2022-12-08T21:46:48.465Z,100767.19
2022-12-08T21:49:17.351Z,100762.81
2022-12-08T21:51:45.105Z,100775.66
2022-12-08T21:54:18.278Z,100773.94
2022-12-08T21:56:48.029Z,100774.84
2022-12-08T21:59:16.181Z,100781.69
2022-12-08T22:01:44.494Z,100778.16
2022-12-08T22:04:16.014Z,100783.31
2022-12-08T22:06:43.505Z,100784.06
2022-12-08T22:09:13.466Z,100783.88
2022-12-08T22:11:42.089Z,100788.00
2022-12-08T22:14:14.380Z,100781.00
2022-12-08T22:16:44.456Z,100781.81
2022-12-08T22:19:12.681Z,100782.63
2022-12-08T22:21:39.980Z,100776.47
2022-12-08T22:24:07.875Z,100776.47
2022-12-08T22:26:35.402Z,100776.47
2022-12-08T22:29:02.900Z,100786.81
2022-12-08T22:31:31.497Z,100774.88
2022-12-08T22:33:59.726Z,100780.03
2022-12-08T22:36:28.144Z,100770.56
2022-12-08T22:38:56.617Z,100772.19
2022-12-08T22:41:24.439Z,100772.19
2022-12-08T22:43:51.975Z,100774.78
2022-12-08T22:46:22.751Z,100775.59
2022-12-08T22:48:51.464Z,100772.19
2022-12-08T22:51:19.351Z,100767.03
2022-12-08T22:53:48.367Z,100769.63
2022-12-08T22:56:17.910Z,100771.50
2022-12-08T22:58:45.527Z,100777.53
2022-12-08T23:01:25.480Z,100771.50
2022-12-08T23:03:53.384Z,100774.13
2022-12-08T23:06:21.099Z,100779.47
2022-12-08T23:08:48.483Z,100768.25
2022-12-08T23:11:16.216Z,100776.09
2022-12-08T23:13:44.114Z,100775.34
2022-12-08T23:16:12.042Z,100762.50
2022-12-08T23:18:46.361Z,100760.88
2022-12-08T23:21:17.237Z,100760.88
2022-12-08T23:23:44.794Z,100761.69
2022-12-08T23:26:23.860Z,100767.66
2022-12-08T23:28:51.895Z,100768.56
2022-12-08T23:31:20.183Z,100772.84
2022-12-08T23:33:48.027Z,100783.19
2022-12-08T23:36:16.574Z,100774.50
2022-12-08T23:38:44.280Z,100777.19
2022-12-08T23:41:14.297Z,100778.97
2022-12-08T23:43:47.389Z,100788.47
2022-12-08T23:46:16.865Z,100783.25
2022-12-08T23:48:44.715Z,100788.34
2022-12-08T23:51:12.777Z,100784.78
2022-12-08T23:53:40.607Z,100778.66
2022-12-08T23:56:13.521Z,100775.09
2022-12-08T23:58:44.141Z,100769.88
